createdAt,value
2018-03-16T00:01:05.084Z,159956.09
2018-03-16T00:03:32.911Z,159963.28
2018-03-16T00:06:00.788Z,159939.19
2018-03-16T00:08:28.514Z,159954.80
2018-03-16T00:10:56.201Z,159967.83
2018-03-16T00:13:24.019Z,159978.25
2018-03-16T00:15:51.596Z,159986.73
2018-03-16T00:18:19.232Z,160001.70
2018-03-16T00:20:46.821Z,160031.69
2018-03-16T00:23:14.506Z,160006.25
2018-03-16T00:25:42.463Z,159993.22
2018-03-16T00:28:10.141Z,159986.09
2018-03-16T00:30:37.955Z,159960.03
2018-03-16T00:33:05.628Z,159958.05
2018-03-16T00:35:33.406Z,159918.98
2018-03-16T00:38:01.058Z,159950.91
2018-03-16T00:40:28.863Z,159964.58
2018-03-16T00:42:56.642Z,159934.64
2018-03-16T00:45:24.297Z,159928.75
2018-03-16T00:47:51.941Z,159942.44
2018-03-16T00:50:19.716Z,159934.64
2018-03-16T00:52:47.337Z,159943.72
2018-03-16T00:55:15.014Z,159955.45
2018-03-16T00:57:42.792Z,159924.22
2018-03-16T01:00:10.568Z,159948.31
2018-03-16T01:02:38.239Z,159933.95
2018-03-16T01:05:05.961Z,159961.98
2018-03-16T01:07:33.652Z,159943.08
2018-03-16T01:10:01.263Z,159968.47
2018-03-16T01:12:28.945Z,159940.48
2018-03-16T01:14:56.609Z,159956.09
2018-03-16T01:17:24.402Z,159912.50
2018-03-16T01:19:52.182Z,159974.36
2018-03-16T01:22:19.840Z,159951.56
2018-03-16T01:24:47.485Z,159958.05
2018-03-16T01:27:15.072Z,159926.16
2018-03-16T01:29:42.767Z,159970.47
2018-03-16T01:32:10.411Z,159969.13
2018-03-16T01:34:38.141Z,159961.98
2018-03-16T01:37:05.908Z,159993.22
2018-03-16T01:39:33.742Z,159958.05
2018-03-16T01:42:01.566Z,159958.75
2018-03-16T01:44:29.229Z,159984.78
2018-03-16T01:46:56.873Z,159965.22
2018-03-16T01:49:24.483Z,159956.09
2018-03-16T01:51:52.154Z,159982.14
2018-03-16T01:54:19.768Z,159952.22
2018-03-16T01:56:47.519Z,159927.47
2018-03-16T01:59:15.179Z,159932.00
2018-03-16T02:01:42.968Z,159938.53
2018-03-16T02:04:10.753Z,159920.92
2018-03-16T02:06:38.513Z,159896.84
2018-03-16T02:09:06.204Z,159917.03
2018-03-16T02:11:33.865Z,159876.69
2018-03-16T02:14:01.559Z,159873.44
2018-03-16T02:16:29.149Z,159894.89
2018-03-16T02:18:56.903Z,159900.13
2018-03-16T02:21:24.686Z,159902.72
2018-03-16T02:23:52.283Z,159892.30
2018-03-16T02:26:20.136Z,159885.81
2018-03-16T02:28:47.814Z,159892.30
2018-03-16T02:31:15.399Z,159914.44
2018-03-16T02:33:43.026Z,159913.80
2018-03-16T02:36:10.720Z,159921.58
2018-03-16T02:38:38.496Z,159901.42
2018-03-16T02:41:06.155Z,159922.28
2018-03-16T02:43:33.856Z,159893.59
2018-03-16T02:46:01.614Z,159891.64
2018-03-16T02:48:29.318Z,159885.11
2018-03-16T02:50:56.989Z,159911.20
2018-03-16T02:53:24.978Z,159917.03
2018-03-16T02:55:52.571Z,159899.48
2018-03-16T02:58:20.217Z,159913.14
2018-03-16T03:00:47.900Z,159902.08
2018-03-16T03:03:15.528Z,159889.06
2018-03-16T03:05:43.344Z,159924.22
2018-03-16T03:08:11.127Z,159930.06
2018-03-16T03:10:38.913Z,159932.66
2018-03-16T03:13:06.583Z,159915.09
2018-03-16T03:15:34.307Z,159918.34
2018-03-16T03:18:02.000Z,159939.19
2018-03-16T03:20:29.608Z,159928.75
2018-03-16T03:22:57.389Z,159928.11
2018-03-16T03:25:25.153Z,159927.47
2018-03-16T03:27:52.786Z,159932.00
2018-03-16T03:30:20.379Z,159952.86
2018-03-16T03:32:48.194Z,159947.02
2018-03-16T03:35:15.878Z,159941.13
2018-03-16T03:37:43.541Z,159934.64
2018-03-16T03:40:11.215Z,159994.52
2018-03-16T03:42:38.840Z,159973.06
2018-03-16T03:45:06.573Z,159965.88
2018-03-16T03:47:34.323Z,159991.92
2018-03-16T03:50:02.023Z,159989.97
2018-03-16T03:52:29.686Z,159978.91
2018-03-16T03:54:57.373Z,159960.03
2018-03-16T03:57:24.998Z,159982.14
2018-03-16T03:59:52.609Z,159996.52
2018-03-16T04:02:20.206Z,159989.97
2018-03-16T04:04:47.870Z,159989.33
2018-03-16T04:07:15.481Z,159963.94
2018-03-16T04:09:43.201Z,159980.19
2018-03-16T04:12:10.966Z,159958.75
2018-03-16T04:14:38.878Z,160007.59
2018-03-16T04:17:06.657Z,160004.30
2018-03-16T04:19:34.296Z,159991.28
2018-03-16T04:22:01.996Z,159965.88
2018-03-16T04:24:29.588Z,159982.14
2018-03-16T04:26:57.250Z,159940.48
2018-03-16T04:29:24.839Z,159969.13
2018-03-16T04:31:52.613Z,159947.02
2018-03-16T04:34:20.386Z,159934.64
2018-03-16T04:36:48.055Z,159944.37
2018-03-16T04:39:15.830Z,159937.25
2018-03-16T04:41:43.515Z,159934.64
2018-03-16T04:44:11.271Z,159909.91
2018-03-16T04:46:39.040Z,159887.11
2018-03-16T04:49:06.631Z,159883.17
2018-03-16T04:51:34.208Z,159915.75
2018-03-16T04:54:01.893Z,159910.55
2018-03-16T04:56:29.669Z,159928.75
2018-03-16T04:58:57.261Z,159897.48
2018-03-16T05:01:25.018Z,159891.64
2018-03-16T05:03:52.756Z,159900.78
2018-03-16T05:06:20.474Z,159933.30
2018-03-16T05:08:48.353Z,159929.41
2018-03-16T05:11:16.582Z,159942.44
2018-03-16T05:13:44.228Z,159920.28
2018-03-16T05:16:11.876Z,159932.66
2018-03-16T05:18:39.560Z,159887.11
2018-03-16T05:21:07.156Z,159864.97
2018-03-16T05:23:34.859Z,159892.30
2018-03-16T05:26:02.517Z,159854.53
2018-03-16T05:28:30.270Z,159888.41
2018-03-16T05:30:58.052Z,159866.91
2018-03-16T05:33:26.101Z,159871.44
2018-03-16T05:35:53.913Z,159872.75
2018-03-16T05:38:21.694Z,159874.09
2018-03-16T05:40:49.452Z,159851.30
2018-03-16T05:43:17.059Z,159842.17
2018-03-16T05:45:44.816Z,159801.83
2018-03-16T05:48:12.549Z,159840.88
2018-03-16T05:50:40.367Z,159844.12
2018-03-16T05:53:08.355Z,159808.31
2018-03-16T05:55:36.041Z,159807.66
2018-03-16T05:58:03.803Z,159842.17
2018-03-16T06:00:31.440Z,159810.91
2018-03-16T06:02:59.164Z,159811.55
2018-03-16T06:05:26.839Z,159793.34
2018-03-16T06:07:54.499Z,159788.81
2018-03-16T06:10:22.296Z,159815.48
2018-03-16T06:12:49.906Z,159786.81
2018-03-16T06:15:17.628Z,159785.52
2018-03-16T06:17:45.243Z,159812.91
2018-03-16T06:20:12.839Z,159772.50
2018-03-16T06:22:40.630Z,159769.91
2018-03-16T06:25:08.235Z,159789.45
2018-03-16T06:27:35.918Z,159760.78
2018-03-16T06:30:03.800Z,159777.73
2018-03-16T06:32:31.380Z,159753.02
2018-03-16T06:34:59.153Z,159716.56
2018-03-16T06:37:26.928Z,159695.72
2018-03-16T06:39:54.599Z,159706.14
2018-03-16T06:42:22.383Z,159676.83
2018-03-16T06:44:50.259Z,159669.70
2018-03-16T06:47:17.935Z,159646.27
2018-03-16T06:49:45.686Z,159659.94
2018-03-16T06:52:13.347Z,159648.22
2018-03-16T06:54:41.054Z,159641.03
2018-03-16T06:57:08.636Z,159629.97
2018-03-16T06:59:36.377Z,159645.63
2018-03-16T07:02:04.089Z,159611.78
2018-03-16T07:04:31.977Z,159596.83
2018-03-16T07:06:59.564Z,159589.66
2018-03-16T07:09:27.155Z,159589.66
2018-03-16T07:11:54.806Z,159557.75
2018-03-16T07:14:22.399Z,159561.05
2018-03-16T07:16:50.115Z,159559.75
2018-03-16T07:19:17.822Z,159540.86
2018-03-16T07:21:45.600Z,159550.63
2018-03-16T07:24:13.377Z,159544.09
2018-03-16T07:26:41.264Z,159538.28
2018-03-16T07:29:09.035Z,159507.03
2018-03-16T07:31:36.629Z,159508.97
2018-03-16T07:34:04.376Z,159519.39
2018-03-16T07:36:31.979Z,159508.33
2018-03-16T07:38:59.648Z,159505.73
2018-03-16T07:41:27.523Z,159504.44
2018-03-16T07:43:55.115Z,159499.91
2018-03-16T07:46:22.873Z,159484.27
2018-03-16T07:48:50.602Z,159479.08
2018-03-16T07:51:18.204Z,159481.67
2018-03-16T07:53:45.958Z,159486.91
2018-03-16T07:56:13.658Z,159468.03
2018-03-16T07:58:41.393Z,159468.67
2018-03-16T08:01:09.229Z,159462.84
2018-03-16T08:03:37.007Z,159467.37
2018-03-16T08:06:04.626Z,159424.44
2018-03-16T08:08:32.446Z,159419.89
2018-03-16T08:11:00.242Z,159447.84
2018-03-16T08:13:28.015Z,159427.72
2018-03-16T08:15:55.657Z,159430.31
2018-03-16T08:18:23.366Z,159447.20
2018-03-16T08:20:51.090Z,159447.20
2018-03-16T08:23:18.926Z,159464.78
2018-03-16T08:25:46.524Z,159443.97
2018-03-16T08:28:15.227Z,159456.97
2018-03-16T08:30:42.957Z,159450.48
2018-03-16T08:33:10.640Z,159437.48
2018-03-16T08:35:38.252Z,159458.91
2018-03-16T08:38:05.999Z,159469.97
2018-03-16T08:40:33.657Z,159471.25
2018-03-16T08:43:01.415Z,159464.78
2018-03-16T08:45:29.235Z,159462.84
2018-03-16T08:47:56.887Z,159494.67
2018-03-16T08:50:24.687Z,159462.19
2018-03-16T08:52:52.271Z,159472.56
2018-03-16T08:55:19.890Z,159449.84
2018-03-16T08:57:47.707Z,159477.78
2018-03-16T09:00:15.490Z,159482.31
2018-03-16T09:02:43.152Z,159470.61
2018-03-16T09:05:10.737Z,159460.84
2018-03-16T09:07:38.349Z,159466.72
2018-03-16T09:10:06.085Z,159475.19
2018-03-16T09:12:33.795Z,159456.97
2018-03-16T09:15:01.438Z,159486.91
2018-03-16T09:17:29.111Z,159499.91
2018-03-16T09:19:56.710Z,159477.14
2018-03-16T09:22:24.359Z,159509.62
2018-03-16T09:24:52.027Z,159473.91
2018-03-16T09:27:19.701Z,159478.44
2018-03-16T09:29:47.504Z,159503.80
2018-03-16T09:32:15.373Z,159482.97
2018-03-16T09:34:43.147Z,159474.55
2018-03-16T09:37:10.927Z,159458.91
2018-03-16T09:39:38.603Z,159468.67
2018-03-16T09:42:06.213Z,159462.84
2018-03-16T09:44:33.944Z,159429.66
2018-03-16T09:47:01.622Z,159471.25
2018-03-16T09:49:29.410Z,159488.84
2018-03-16T09:51:57.188Z,159471.91
2018-03-16T09:54:24.836Z,159522.03
2018-03-16T09:56:52.642Z,159470.61
2018-03-16T09:59:20.315Z,159464.78
2018-03-16T10:01:47.979Z,159484.27
2018-03-16T10:04:15.767Z,159484.91
2018-03-16T10:06:43.389Z,159503.14
2018-03-16T10:09:11.219Z,159542.16
2018-03-16T10:11:39.001Z,159503.80
2018-03-16T10:14:06.643Z,159505.09
2018-03-16T10:16:34.454Z,159486.91
2018-03-16T10:19:02.041Z,159470.61
2018-03-16T10:21:29.806Z,159446.55
2018-03-16T10:23:57.481Z,159453.72
2018-03-16T10:26:25.258Z,159494.67
2018-03-16T10:28:52.832Z,159478.44
2018-03-16T10:31:20.472Z,159452.44
2018-03-16T10:33:48.285Z,159473.20
2018-03-16T10:36:15.861Z,159430.95
2018-03-16T10:38:43.527Z,159437.48
2018-03-16T10:41:11.414Z,159449.14
2018-03-16T10:43:39.092Z,159447.20
2018-03-16T10:46:06.832Z,159428.38
2018-03-16T10:48:34.464Z,159433.55
2018-03-16T10:51:02.161Z,159429.66
2018-03-16T10:53:29.755Z,159450.48
2018-03-16T10:55:57.466Z,159505.73
2018-03-16T10:58:25.251Z,159507.69
2018-03-16T11:00:58.563Z,159475.84
2018-03-16T11:06:27.700Z,159460.19
2018-03-16T11:08:55.362Z,159473.91
2018-03-16T11:11:22.955Z,159462.84
2018-03-16T11:13:50.590Z,159469.31
2018-03-16T11:16:18.400Z,159514.86
2018-03-16T11:18:46.072Z,159512.91
2018-03-16T11:21:13.911Z,159466.08
2018-03-16T11:23:41.707Z,159495.97
2018-03-16T11:26:09.294Z,159511.61
2018-03-16T11:28:36.968Z,159454.38
2018-03-16T11:31:04.549Z,159475.19
2018-03-16T11:33:32.152Z,159459.55
2018-03-16T11:35:59.861Z,159497.97
2018-03-16T11:38:27.566Z,159540.86
2018-03-16T11:40:55.357Z,159480.38
2018-03-16T11:43:22.975Z,159461.55
2018-03-16T11:45:50.814Z,159427.72
2018-03-16T11:48:18.540Z,159460.19
2018-03-16T11:50:46.259Z,159484.91
2018-03-16T11:53:13.885Z,159481.03
2018-03-16T11:55:41.524Z,159474.55
2018-03-16T11:58:09.114Z,159466.72
2018-03-16T12:00:36.696Z,159466.72
2018-03-16T12:03:04.431Z,159470.61
2018-03-16T12:05:32.326Z,159436.78
2018-03-16T12:07:59.981Z,159453.72
2018-03-16T12:10:27.575Z,159422.50
2018-03-16T12:12:55.217Z,159436.78
2018-03-16T12:15:22.972Z,159469.97
2018-03-16T12:17:50.639Z,159453.08
2018-03-16T12:20:18.365Z,159395.19
2018-03-16T12:22:45.980Z,159436.78
2018-03-16T12:25:13.661Z,159474.55
2018-03-16T12:27:41.260Z,159457.61
2018-03-16T12:30:08.971Z,159448.50
2018-03-16T12:32:36.649Z,159494.67
2018-03-16T12:35:04.528Z,159492.09
2018-03-16T12:37:32.305Z,159491.44
2018-03-16T12:40:00.074Z,159509.62
2018-03-16T12:42:27.699Z,159501.84
2018-03-16T12:44:55.287Z,159470.61
2018-03-16T12:47:23.111Z,159489.50
2018-03-16T12:49:50.782Z,159463.48
2018-03-16T12:52:18.664Z,159455.02
2018-03-16T12:54:46.253Z,159432.25
2018-03-16T12:57:13.974Z,159393.89
2018-03-16T12:59:41.769Z,159443.97
2018-03-16T13:02:09.374Z,159429.02
2018-03-16T13:04:36.958Z,159404.31
2018-03-16T13:07:04.591Z,159421.19
2018-03-16T13:09:32.392Z,159445.25
2018-03-16T13:12:00.070Z,159434.84
2018-03-16T13:14:27.728Z,159434.84
2018-03-16T13:16:55.404Z,159426.42
2018-03-16T13:19:23.019Z,159414.06
2018-03-16T13:21:50.600Z,159403.66
2018-03-16T13:24:18.206Z,159428.38
2018-03-16T13:26:46.002Z,159430.31
2018-03-16T13:29:13.680Z,159377.02
2018-03-16T13:31:41.527Z,159383.48
2018-03-16T13:34:09.351Z,159395.84
2018-03-16T13:36:37.088Z,159388.66
2018-03-16T13:39:05.008Z,159385.44
2018-03-16T13:41:32.992Z,159418.59
2018-03-16T13:44:00.645Z,159404.95
2018-03-16T13:46:28.336Z,159388.66
2018-03-16T13:48:56.026Z,159391.95
2018-03-16T13:51:23.689Z,159401.72
2018-03-16T13:53:51.436Z,159375.67
2018-03-16T13:56:19.247Z,159382.19
2018-03-16T13:58:47.025Z,159393.89
2018-03-16T14:01:14.680Z,159378.31
2018-03-16T14:03:42.376Z,159363.97
2018-03-16T14:06:10.040Z,159352.27
2018-03-16T14:08:37.828Z,159391.31
2018-03-16T14:11:05.413Z,159377.66
2018-03-16T14:13:33.173Z,159356.84
2018-03-16T14:16:00.834Z,159378.31
2018-03-16T14:18:28.634Z,159359.44
2018-03-16T14:20:56.612Z,159346.44
2018-03-16T14:23:24.372Z,159363.31
2018-03-16T14:25:52.009Z,159391.31
2018-03-16T14:28:19.639Z,159365.31
2018-03-16T14:30:47.325Z,159345.78
2018-03-16T14:33:14.993Z,159359.44
2018-03-16T14:35:42.768Z,159366.61
2018-03-16T14:38:10.492Z,159334.08
2018-03-16T14:40:38.190Z,159306.80
2018-03-16T14:43:06.004Z,159313.27
2018-03-16T14:45:33.772Z,159304.20
2018-03-16T14:48:01.370Z,159294.44
2018-03-16T14:50:28.959Z,159292.50
2018-03-16T14:52:56.807Z,159287.92
2018-03-16T14:55:24.466Z,159294.44
2018-03-16T14:57:52.159Z,159256.75
2018-03-16T15:00:19.895Z,159293.80
2018-03-16T15:02:47.712Z,159298.33
2018-03-16T15:05:15.289Z,159284.69
2018-03-16T15:07:42.940Z,159276.22
2018-03-16T15:10:11.046Z,159284.03
2018-03-16T15:12:38.615Z,159312.62
2018-03-16T15:15:06.396Z,159320.44
2018-03-16T15:17:34.021Z,159301.56
2018-03-16T15:20:01.848Z,159332.14
2018-03-16T15:22:29.618Z,159313.91
2018-03-16T15:24:57.510Z,159310.67
2018-03-16T15:27:25.184Z,159304.20
2018-03-16T15:29:53.014Z,159326.27
2018-03-16T15:32:20.850Z,159311.33
2018-03-16T15:34:48.434Z,159295.73
2018-03-16T15:37:16.298Z,159250.88
2018-03-16T15:39:43.970Z,159276.22
2018-03-16T15:42:11.751Z,159314.56
2018-03-16T15:44:40.160Z,159276.86
2018-03-16T15:47:07.807Z,159289.86
2018-03-16T15:49:35.703Z,159295.09
2018-03-16T15:52:03.276Z,159286.63
2018-03-16T15:54:30.894Z,159298.33
2018-03-16T15:56:58.724Z,159323.67
2018-03-16T15:59:26.389Z,159288.56
2018-03-16T16:01:53.973Z,159245.05
2018-03-16T16:04:21.854Z,159256.75
2018-03-16T16:06:49.636Z,159247.64
2018-03-16T16:09:17.398Z,159228.77
2018-03-16T16:11:45.006Z,159209.31
2018-03-16T16:14:12.656Z,159198.91
2018-03-16T16:16:40.307Z,159176.80
2018-03-16T16:19:08.112Z,159195.66
2018-03-16T16:21:35.690Z,159204.72
2018-03-16T16:24:03.347Z,159208.66
2018-03-16T16:26:31.024Z,159157.28
2018-03-16T16:28:58.749Z,159173.56
2018-03-16T16:31:26.387Z,159148.22
2018-03-16T16:33:54.059Z,159120.91
2018-03-16T16:36:21.634Z,159117.66
2018-03-16T16:38:49.309Z,159118.31
2018-03-16T16:41:17.092Z,159126.78
2018-03-16T16:43:44.869Z,159122.89
2018-03-16T16:46:12.497Z,159071.53
2018-03-16T16:48:40.105Z,159051.44
2018-03-16T16:51:07.694Z,159025.41
2018-03-16T16:53:35.364Z,159029.98
2018-03-16T16:56:03.038Z,159022.17
2018-03-16T16:58:30.701Z,159026.11
2018-03-16T17:00:58.490Z,159031.92
2018-03-16T17:03:26.167Z,159023.47
2018-03-16T17:05:53.936Z,159017.00
2018-03-16T17:08:21.724Z,159016.34
2018-03-16T17:10:49.399Z,159015.06
2018-03-16T17:13:16.978Z,158992.31
2018-03-16T17:15:44.752Z,158993.62
2018-03-16T17:18:12.433Z,158994.91
2018-03-16T17:20:40.091Z,158999.44
2018-03-16T17:23:07.882Z,158986.45
2018-03-16T17:25:35.551Z,158960.48
2018-03-16T17:28:03.141Z,158958.55
2018-03-16T17:30:30.787Z,158955.95
2018-03-16T17:32:58.683Z,158938.41
2018-03-16T17:35:26.460Z,158922.19
2018-03-16T17:37:54.067Z,158920.25
2018-03-16T17:40:21.916Z,158925.41
2018-03-16T17:42:49.567Z,158921.53
2018-03-16T17:45:17.200Z,158922.83
2018-03-16T17:47:44.838Z,158918.95
2018-03-16T17:50:12.617Z,158916.31
2018-03-16T17:52:40.178Z,158926.06
2018-03-16T17:55:07.826Z,158919.59
2018-03-16T17:57:35.437Z,158916.31
2018-03-16T18:00:03.283Z,158921.53
2018-03-16T18:02:31.098Z,158894.94
2018-03-16T18:04:58.874Z,158889.06
2018-03-16T18:07:26.547Z,158889.70
2018-03-16T18:09:55.200Z,158877.38
2018-03-16T18:12:22.820Z,158883.23
2018-03-16T18:14:50.396Z,158882.59
2018-03-16T18:17:18.122Z,158879.97
2018-03-16T18:19:45.748Z,158879.97
2018-03-16T18:22:13.522Z,158879.31
2018-03-16T18:24:41.301Z,158857.94
2018-03-16T18:27:08.980Z,158865.69
2018-03-16T18:29:36.861Z,158861.16
2018-03-16T18:32:04.617Z,158859.22
2018-03-16T18:34:32.361Z,158856.63
2018-03-16T18:36:59.933Z,158838.44
2018-03-16T18:39:31.217Z,158841.02
2018-03-16T18:42:03.781Z,158861.16
2018-03-16T18:44:36.169Z,158826.09
2018-03-16T18:47:08.088Z,158814.41
2018-03-16T18:49:40.124Z,158807.25
2018-03-16T18:52:11.612Z,158811.19
2018-03-16T18:54:44.684Z,158807.91
2018-03-16T18:57:12.624Z,158791.69
2018-03-16T18:59:40.197Z,158781.30
2018-03-16T19:02:07.776Z,158791.05
2018-03-16T19:04:40.947Z,158798.20
2018-03-16T19:07:13.109Z,158795.56
2018-03-16T19:09:42.254Z,158785.88
2018-03-16T19:12:12.372Z,158802.09
2018-03-16T19:14:42.129Z,158804.67
2018-03-16T19:17:10.007Z,158790.41
2018-03-16T19:19:37.786Z,158799.50
2018-03-16T19:22:05.462Z,158794.92
2018-03-16T19:24:33.070Z,158789.75
2018-03-16T19:27:00.916Z,158799.50
2018-03-16T19:29:28.696Z,158811.19
2018-03-16T19:31:56.478Z,158795.56
2018-03-16T19:34:24.227Z,158776.78
2018-03-16T19:36:52.090Z,158789.75
2018-03-16T19:39:19.791Z,158784.58
2018-03-16T19:41:47.354Z,158798.20
2018-03-16T19:44:15.153Z,158779.36
2018-03-16T19:46:42.878Z,158793.62
2018-03-16T19:49:10.435Z,158775.48
2018-03-16T19:51:38.066Z,158772.25
2018-03-16T19:54:05.715Z,158784.58
2018-03-16T19:56:33.414Z,158788.45
2018-03-16T19:59:01.038Z,158761.22
2018-03-16T20:01:28.875Z,158772.25
2018-03-16T20:03:56.499Z,158789.75
2018-03-16T20:06:24.369Z,158793.62
2018-03-16T20:08:52.011Z,158776.78
2018-03-16T20:11:19.682Z,158780.66
2018-03-16T20:13:47.258Z,158780.66
2018-03-16T20:16:14.924Z,158760.56
2018-03-16T20:18:42.609Z,158774.19
2018-03-16T20:21:10.392Z,158773.55
2018-03-16T20:23:38.169Z,158776.13
2018-03-16T20:26:05.789Z,158770.91
2018-03-16T20:28:33.510Z,158764.45
2018-03-16T20:31:01.189Z,158765.75
2018-03-16T20:33:28.814Z,158766.39
2018-03-16T20:35:56.388Z,158768.97
2018-03-16T20:38:23.997Z,158768.97
2018-03-16T20:40:51.599Z,158768.33
2018-03-16T20:43:19.264Z,158776.78
2018-03-16T20:45:46.930Z,158753.41
2018-03-16T20:48:14.517Z,158759.23
2018-03-16T20:50:42.181Z,158774.19
2018-03-16T20:53:09.782Z,158767.03
2018-03-16T20:55:38.530Z,158780.66
2018-03-16T20:58:06.134Z,158761.86
2018-03-16T21:00:33.814Z,158760.56
2018-03-16T21:03:01.579Z,158767.03
2018-03-16T21:05:29.269Z,158768.97
2018-03-16T21:07:56.926Z,158772.25
2018-03-16T21:10:24.720Z,158758.58
2018-03-16T21:12:52.332Z,158774.19
2018-03-16T21:15:19.931Z,158768.33
2018-03-16T21:17:47.538Z,158752.13
2018-03-16T21:20:19.010Z,158748.89
2018-03-16T21:22:46.696Z,158766.39
2018-03-16T21:25:14.327Z,158751.47
2018-03-16T21:27:42.021Z,158745.61
2018-03-16T21:30:11.142Z,158732.62
2018-03-16T21:32:38.818Z,158723.53
2018-03-16T21:35:06.411Z,158737.84
2018-03-16T21:37:34.248Z,158722.89
2018-03-16T21:40:01.892Z,158709.27
2018-03-16T21:42:30.032Z,158710.56
2018-03-16T21:45:02.498Z,158725.52
2018-03-16T21:47:30.448Z,158732.62
2018-03-16T21:49:58.285Z,158718.36
2018-03-16T21:52:25.959Z,158706.69
2018-03-16T21:54:53.588Z,158720.30
2018-03-16T21:57:21.156Z,158728.75
2018-03-16T21:59:48.751Z,158708.62
2018-03-16T22:02:16.542Z,158693.06
2018-03-16T22:04:44.148Z,158701.52
2018-03-16T22:07:11.762Z,158691.13
2018-03-16T22:09:39.375Z,158696.30
2018-03-16T22:12:07.011Z,158683.97
2018-03-16T22:14:34.938Z,158663.89
2018-03-16T22:17:02.695Z,158678.16
2018-03-16T22:19:30.682Z,158680.73
2018-03-16T22:21:58.263Z,158683.31
2018-03-16T22:24:26.044Z,158653.50
2018-03-16T22:26:53.711Z,158663.89
2018-03-16T22:29:21.398Z,158673.58
2018-03-16T22:31:48.973Z,158676.86
2018-03-16T22:34:16.639Z,158653.50
2018-03-16T22:36:44.209Z,158651.56
2018-03-16T22:39:11.900Z,158646.98
2018-03-16T22:41:39.530Z,158635.31
2018-03-16T22:44:07.249Z,158645.05
2018-03-16T22:46:34.823Z,158657.38
2018-03-16T22:49:03.009Z,158652.86
2018-03-16T22:51:30.786Z,158651.56
2018-03-16T22:53:58.371Z,158644.41
2018-03-16T22:56:26.240Z,158640.53
2018-03-16T22:58:53.903Z,158643.75
2018-03-16T23:01:21.569Z,158638.53
2018-03-16T23:03:49.172Z,158630.78
2018-03-16T23:06:16.838Z,158611.31
2018-03-16T23:08:44.500Z,158622.98
2018-03-16T23:11:12.173Z,158610.66
2018-03-16T23:13:39.854Z,158611.95
2018-03-16T23:16:07.463Z,158628.84
2018-03-16T23:18:35.065Z,158598.34
2018-03-16T23:21:02.894Z,158598.34
2018-03-16T23:23:30.609Z,158600.28
2018-03-16T23:25:58.206Z,158587.95
2018-03-16T23:28:25.813Z,158593.17
2018-03-16T23:30:53.478Z,158607.44
2018-03-16T23:33:21.073Z,158605.50
2018-03-16T23:35:48.818Z,158592.53
2018-03-16T23:38:16.437Z,158604.20
2018-03-16T23:40:44.013Z,158594.47
2018-03-16T23:43:11.641Z,158582.14
2018-03-16T23:45:39.201Z,158584.08
2018-03-16T23:48:06.777Z,158563.95
2018-03-16T23:50:34.469Z,158562.66
2018-03-16T23:53:02.072Z,158573.05
2018-03-16T23:55:29.719Z,158573.69
2018-03-16T23:57:57.415Z,158577.56
